Airfield :
LOGIN :

Register | Disclaimer

   EN    FR    IT 

 










Legend :    VFR   Marginal VFR   IFR   Intensive IFR   Very Intensive IFR
Visi :
Ceiling :
>= 8 km
>= 3000ft
5 to 8 km
1000 to 3000 ft
1500m to 5 km
500 to 1000 ft
800 to 1500m
200 to 500 ft
< 800m
< 200 ft
Symbols :   Thunderstorms  Fog  Heavy snow  Heavy precipitations  Wind > 20 kt
SIGMETs :     Misc.  Thunderstorms  Icing  Turbulence  Mountain Waves  Volcanic Ashes







- Airport Elevation : 291 ft
- IATA code : ORY
- Download approach charts


LFPO - Paris-Orly

CURRENT METAR :
  • 181530Z 29012KT 9999 FEW010 SCT037 BKN047 10/06 Q1007 NOSIG

EXPIRED METARs :
  • 181500Z 29011KT 9999 FEW022 BKN043 BKN050 10/07 Q1007 NOSIG
  • 181430Z 29017KT 270V330 9999 -RA SCT023 BKN028 BKN036 10/07 Q1006 NOSIG
  • 181400Z 29009KT 260V320 9999 BKN024 BKN030 11/08 Q1006 NOSIG
  • 181330Z 29009KT 9999 SCT024 BKN030 BKN058 11/08 Q1006 TEMPO BKN012
  • 181300Z 29012KT 9999 FEW021 FEW038TCU BKN062 11/08 Q1006 TEMPO BKN012

TAF AMD TAF LFPO
Valid from the 18 at 12:00 until the 19 at 18:00 UTC


181128Z 1812/1918 26015G25KT 9999 BKN025
TEMPO 1812/1814 26015G30KT 2000 -RA BKN012 BKN020TCU
TEMPO 1818/1824 26018G30KT 4000 -SHRA BKN020 SCT025TCU
TEMPO 1906/1912 4000 SHRA BKN008 SCT020CB
PROB30
TEMPO 1906/1909 2500 -SHRASN BKN012CB
ATIS : +33 1 49 75 65 80
No reported NOTAMs for that airfield.



MET'MAP, your aeronautical weather chart ! - Copyright ORBIFLY December 2007 - Disclaimer

ORBIFLY MET'MAP TEAM :

Programming & Development : Alexandra Zaïnal
Concept & Development : Baudouin d'Aumeries
Co-Development & Prog : Marc-Olivier Méhu
Technical & hardware support : Manuel Goepfert

Contact : metmap@orbifly.com




SOURCES & CREDITS :

   NOAA